JFK weather

John F Kennedy International Airport
New York, New York, United States

Public forecast

Using degrees Fahrenheit for public forecast. Weather courtesy of forecast.io.

METAR (pilot weather report)

Retrieved 2017/10/22 09:51 UTC (54 minutes ago):

KJFK 220951Z 00000KT 10SM FEW250 11/09 A3038 RMK AO2 SLP286 T01060094

TAF (pilot weather forecast)

Retrieved 2017/10/22 06:40 UTC (4 hours ago):

TAF KJFK 220538Z 2206/2312 VRB03KT P6SM SCT250 FM221500 17007KT P6SM BKN250 FM221900 17012KT P6SM BKN250 FM222200 17008KT P6SM BKN250 FM230300 15005KT P6SM SCT015 BKN250